createdAt,value
2022-10-22T00:00:52.803Z,92.80
2022-10-22T00:03:19.314Z,93.02
2022-10-22T00:05:45.767Z,93.25
2022-10-22T00:08:12.281Z,93.28
2022-10-22T00:10:38.863Z,93.51
2022-10-22T00:13:05.340Z,93.85
2022-10-22T00:15:31.919Z,93.45
2022-10-22T00:17:58.371Z,93.69
2022-10-22T00:20:24.819Z,93.40
2022-10-22T00:25:18.652Z,93.76
2022-10-22T00:27:45.082Z,93.91
2022-10-22T00:30:12.084Z,93.82
2022-10-22T00:32:39.158Z,93.88
2022-10-22T00:35:07.222Z,93.90
2022-10-22T00:37:33.701Z,94.03
2022-10-22T00:40:00.271Z,94.26
2022-10-22T00:42:29.304Z,93.81
2022-10-22T00:45:10.827Z,94.21
2022-10-22T00:47:57.480Z,94.16
2022-10-22T00:50:29.391Z,93.42
2022-10-22T00:52:57.352Z,93.57
2022-10-22T00:55:26.380Z,93.64
2022-10-22T00:57:55.601Z,94.05
2022-10-22T01:00:22.656Z,93.74
2022-10-22T01:02:51.154Z,93.32
2022-10-22T01:05:18.179Z,93.39
2022-10-22T01:07:48.677Z,93.86
2022-10-22T01:10:30.784Z,94.09
2022-10-22T01:13:11.099Z,94.38
2022-10-22T01:15:40.438Z,94.02
2022-10-22T01:18:15.289Z,93.96
2022-10-22T01:21:13.982Z,94.21
2022-10-22T01:24:01.395Z,94.13
2022-10-22T01:26:36.688Z,93.86
2022-10-22T01:29:17.326Z,93.99
2022-10-22T01:31:54.420Z,93.88
2022-10-22T01:34:23.589Z,93.99
2022-10-22T01:36:52.200Z,94.20
2022-10-22T01:39:20.394Z,93.97
2022-10-22T01:41:46.959Z,94.54
2022-10-22T01:44:48.736Z,94.58
2022-10-22T01:47:32.908Z,94.65
2022-10-22T01:50:19.538Z,94.71
2022-10-22T01:53:06.311Z,95.19
2022-10-22T01:56:00.233Z,95.25
2022-10-22T01:58:53.707Z,94.67
2022-10-22T02:01:45.861Z,95.55
2022-10-22T02:04:35.613Z,95.43
2022-10-22T02:07:06.153Z,96.04
2022-10-22T02:09:34.064Z,96.11
2022-10-22T02:12:03.179Z,96.67
2022-10-22T02:14:31.443Z,96.13
2022-10-22T02:16:59.320Z,96.12
2022-10-22T02:19:30.626Z,96.89
2022-10-22T02:21:57.089Z,98.67
2022-10-22T02:24:24.166Z,98.83
2022-10-22T02:27:12.195Z,99.24
2022-10-22T02:29:42.954Z,99.09
2022-10-22T02:32:15.179Z,98.76
2022-10-22T02:34:41.889Z,98.94
2022-10-22T02:37:09.228Z,98.50
2022-10-22T02:39:36.507Z,98.95
2022-10-22T02:42:03.411Z,98.45
2022-10-22T02:44:29.925Z,98.84
2022-10-22T02:46:56.695Z,99.07
2022-10-22T02:49:23.175Z,99.87
2022-10-22T02:51:49.667Z,100.00
2022-10-22T02:54:16.155Z,100.00
2022-10-22T02:56:42.674Z,100.00
2022-10-22T02:59:09.167Z,100.00
2022-10-22T03:01:35.644Z,100.00
2022-10-22T03:04:02.243Z,100.00
2022-10-22T03:06:28.772Z,100.00
2022-10-22T03:08:55.775Z,100.00
2022-10-22T03:11:22.250Z,100.00
2022-10-22T03:13:48.719Z,100.00
2022-10-22T03:16:15.160Z,100.00
2022-10-22T03:18:41.603Z,100.00
2022-10-22T03:21:18.015Z,100.00
2022-10-22T03:23:44.543Z,100.00
2022-10-22T03:26:13.578Z,100.00
2022-10-22T03:28:41.199Z,100.00
2022-10-22T03:31:07.725Z,100.00
2022-10-22T03:33:34.227Z,100.00
2022-10-22T03:36:00.928Z,100.00
2022-10-22T03:38:27.492Z,100.00
2022-10-22T03:40:54.003Z,100.00
2022-10-22T03:43:20.496Z,100.00
2022-10-22T03:45:47.165Z,100.00
2022-10-22T03:48:13.776Z,100.00
2022-10-22T03:50:40.259Z,100.00
2022-10-22T03:53:08.536Z,100.00
2022-10-22T03:55:35.010Z,100.00
2022-10-22T03:58:02.126Z,100.00
2022-10-22T04:00:28.576Z,100.00
2022-10-22T04:02:55.027Z,100.00
2022-10-22T04:05:21.476Z,100.00
2022-10-22T04:07:47.921Z,100.00
2022-10-22T04:10:14.477Z,100.00
2022-10-22T04:12:40.941Z,100.00
2022-10-22T04:15:08.065Z,100.00
2022-10-22T04:17:37.956Z,100.00
2022-10-22T04:20:05.310Z,100.00
2022-10-22T04:22:34.497Z,100.00
2022-10-22T04:25:01.050Z,100.00
2022-10-22T04:27:31.925Z,100.00
2022-10-22T04:29:58.712Z,100.00
2022-10-22T04:32:26.602Z,100.00
2022-10-22T04:34:53.059Z,100.00
2022-10-22T04:37:19.961Z,100.00
2022-10-22T04:39:46.432Z,100.00
2022-10-22T04:42:13.006Z,100.00
2022-10-22T04:44:39.472Z,100.00
2022-10-22T04:47:05.914Z,100.00
2022-10-22T04:49:32.390Z,100.00
2022-10-22T04:51:58.859Z,100.00
2022-10-22T04:54:27.804Z,100.00
2022-10-22T04:56:58.418Z,100.00
2022-10-22T04:59:24.902Z,100.00
2022-10-22T05:01:51.420Z,100.00
2022-10-22T05:04:19.596Z,100.00
2022-10-22T05:06:46.502Z,100.00
2022-10-22T05:09:19.488Z,100.00
2022-10-22T05:11:49.184Z,100.00
2022-10-22T05:14:21.219Z,100.00
2022-10-22T05:16:49.022Z,100.00
2022-10-22T05:19:20.765Z,100.00
2022-10-22T05:21:47.244Z,100.00
2022-10-22T05:24:13.742Z,100.00
2022-10-22T05:26:40.274Z,100.00
2022-10-22T05:29:06.837Z,100.00
2022-10-22T05:31:33.622Z,100.00
2022-10-22T05:34:00.078Z,100.00
2022-10-22T05:36:26.899Z,100.00
2022-10-22T05:38:53.755Z,100.00
2022-10-22T05:41:24.693Z,100.00
2022-10-22T05:43:53.952Z,100.00
2022-10-22T05:46:23.016Z,100.00
2022-10-22T05:48:55.587Z,100.00
2022-10-22T05:51:22.627Z,100.00
2022-10-22T05:53:58.743Z,100.00
2022-10-22T05:56:26.813Z,100.00
2022-10-22T05:58:53.673Z,100.00
2022-10-22T06:01:25.775Z,100.00
2022-10-22T06:03:57.085Z,100.00
2022-10-22T06:06:37.448Z,100.00
2022-10-22T06:09:11.207Z,100.00
2022-10-22T06:11:37.799Z,100.00
2022-10-22T06:14:04.651Z,100.00
2022-10-22T06:16:31.817Z,100.00
2022-10-22T06:19:02.047Z,100.00
2022-10-22T06:21:29.128Z,100.00
2022-10-22T06:23:56.851Z,100.00
2022-10-22T06:26:23.355Z,100.00
2022-10-22T06:28:49.904Z,100.00
2022-10-22T06:31:16.408Z,100.00
2022-10-22T06:33:43.371Z,100.00
2022-10-22T06:36:12.462Z,100.00
2022-10-22T06:38:39.885Z,100.00
2022-10-22T06:41:13.896Z,100.00
2022-10-22T06:43:41.350Z,100.00
2022-10-22T06:46:09.820Z,100.00
2022-10-22T06:48:37.854Z,100.00
2022-10-22T06:51:07.134Z,100.00
2022-10-22T06:53:34.783Z,100.00
2022-10-22T06:56:09.291Z,100.00
2022-10-22T06:58:36.124Z,100.00
2022-10-22T07:01:08.768Z,100.00
2022-10-22T07:03:36.204Z,100.00
2022-10-22T07:06:05.387Z,100.00
2022-10-22T07:08:32.888Z,100.00
2022-10-22T07:11:12.565Z,100.00
2022-10-22T07:13:39.054Z,100.00
2022-10-22T07:16:07.075Z,100.00
2022-10-22T07:18:34.631Z,100.00
2022-10-22T07:21:01.475Z,100.00
2022-10-22T07:23:28.625Z,100.00
2022-10-22T07:28:23.059Z,100.00
2022-10-22T07:30:49.693Z,100.00
2022-10-22T07:33:16.253Z,100.00
2022-10-22T07:35:43.208Z,100.00
2022-10-22T07:38:09.690Z,100.00
2022-10-22T07:40:36.504Z,100.00
2022-10-22T07:43:03.371Z,100.00
2022-10-22T07:45:29.898Z,100.00
2022-10-22T07:47:56.398Z,100.00
2022-10-22T07:50:23.061Z,100.00
2022-10-22T07:52:49.581Z,100.00
2022-10-22T07:55:16.177Z,100.00
2022-10-22T07:57:42.671Z,100.00
2022-10-22T08:00:10.044Z,100.00
2022-10-22T08:02:39.781Z,100.00
2022-10-22T08:05:07.053Z,100.00
2022-10-22T08:07:33.577Z,100.00
2022-10-22T08:10:00.043Z,100.00
2022-10-22T08:12:26.680Z,100.00
2022-10-22T08:14:53.311Z,100.00
2022-10-22T08:17:19.760Z,100.00
2022-10-22T08:19:46.221Z,100.00
2022-10-22T08:22:12.678Z,100.00
2022-10-22T08:24:39.270Z,100.00
2022-10-22T08:27:05.754Z,100.00
2022-10-22T08:29:32.192Z,100.00
2022-10-22T08:31:58.693Z,100.00
2022-10-22T08:34:25.203Z,100.00
2022-10-22T08:36:51.645Z,100.00
2022-10-22T08:39:18.094Z,100.00
2022-10-22T08:42:02.186Z,99.68
2022-10-22T08:45:01.409Z,99.99
2022-10-22T08:47:52.444Z,99.09
2022-10-22T08:50:39.599Z,99.42
2022-10-22T08:53:12.567Z,99.45
2022-10-22T08:55:39.727Z,99.38
2022-10-22T08:58:27.982Z,99.03
2022-10-22T09:01:19.934Z,99.41
2022-10-22T09:03:52.645Z,99.64
2022-10-22T09:06:24.013Z,99.23
2022-10-22T09:08:51.658Z,98.85
2022-10-22T09:11:26.578Z,99.17
2022-10-22T09:13:55.090Z,99.15
2022-10-22T09:16:51.488Z,99.09
2022-10-22T09:19:45.484Z,98.95
2022-10-22T09:25:25.652Z,99.01
2022-10-22T09:27:54.300Z,98.44
2022-10-22T09:30:23.411Z,98.74
2022-10-22T09:33:09.347Z,98.93
2022-10-22T09:35:52.585Z,98.03
2022-10-22T09:38:21.501Z,98.29
2022-10-22T09:40:51.652Z,98.19
2022-10-22T09:43:19.147Z,98.05
2022-10-22T09:45:46.892Z,97.21
2022-10-22T09:48:30.442Z,97.71
2022-10-22T09:51:14.843Z,97.57
2022-10-22T09:53:47.236Z,97.07
2022-10-22T09:56:24.858Z,95.77
2022-10-22T09:58:51.832Z,96.53
2022-10-22T10:01:22.363Z,96.20
2022-10-22T10:03:49.746Z,96.32
2022-10-22T10:06:21.384Z,96.44
2022-10-22T10:08:48.399Z,96.57
2022-10-22T10:11:19.663Z,96.43
2022-10-22T10:14:20.409Z,96.81
2022-10-22T10:17:03.486Z,96.64
2022-10-22T10:19:59.963Z,97.23
2022-10-22T10:22:48.420Z,97.53
2022-10-22T10:25:33.570Z,96.71
2022-10-22T10:28:03.539Z,96.33
2022-10-22T10:30:32.436Z,96.91
2022-10-22T10:33:16.983Z,96.38
2022-10-22T10:35:56.727Z,95.34
2022-10-22T10:38:47.987Z,95.41
2022-10-22T10:41:48.775Z,94.50
2022-10-22T10:44:52.627Z,95.43
2022-10-22T10:47:31.102Z,94.41
2022-10-22T10:50:15.388Z,93.91
2022-10-22T10:53:07.540Z,93.44
2022-10-22T10:56:01.479Z,93.78
2022-10-22T10:58:53.675Z,92.98
2022-10-22T11:01:25.470Z,91.37
2022-10-22T11:04:25.659Z,92.03
2022-10-22T11:07:10.681Z,91.29
2022-10-22T11:09:46.046Z,92.31
2022-10-22T11:12:18.517Z,91.47
2022-10-22T11:15:15.566Z,92.40
2022-10-22T11:17:46.390Z,91.46
2022-10-22T11:20:18.367Z,91.12
2022-10-22T11:23:17.527Z,90.30
2022-10-22T11:25:44.437Z,90.13
2022-10-22T11:28:37.541Z,90.30
2022-10-22T11:31:10.471Z,89.04
2022-10-22T11:33:48.332Z,89.20
2022-10-22T11:36:15.762Z,90.09
2022-10-22T11:38:42.444Z,88.94
2022-10-22T11:41:15.882Z,88.13
2022-10-22T11:43:55.371Z,87.52
2022-10-22T11:46:21.761Z,87.51
2022-10-22T11:51:42.239Z,87.17
2022-10-22T11:54:37.237Z,86.94
2022-10-22T11:57:17.583Z,85.10
2022-10-22T11:59:46.993Z,84.22
2022-10-22T12:02:28.643Z,84.11
2022-10-22T12:05:15.977Z,83.75
2022-10-22T12:08:03.473Z,84.33
2022-10-22T12:10:37.023Z,82.75
2022-10-22T12:13:18.042Z,84.01
2022-10-22T12:15:51.119Z,83.48
2022-10-22T12:18:18.337Z,82.39
2022-10-22T12:20:50.808Z,80.50
2022-10-22T12:23:17.397Z,81.32
2022-10-22T12:25:44.172Z,81.28
2022-10-22T12:28:13.604Z,80.71
2022-10-22T12:30:41.273Z,81.94
2022-10-22T12:33:18.252Z,82.40
2022-10-22T12:35:46.941Z,83.13
2022-10-22T12:38:16.192Z,82.32
2022-10-22T12:40:46.041Z,82.20
2022-10-22T12:43:17.226Z,83.24
2022-10-22T12:45:45.801Z,82.77
2022-10-22T12:48:28.559Z,83.62
2022-10-22T12:50:59.540Z,83.14
2022-10-22T12:53:33.201Z,83.22
2022-10-22T12:56:02.475Z,83.92
2022-10-22T12:58:34.024Z,83.40
2022-10-22T13:01:01.987Z,84.46
2022-10-22T13:03:41.148Z,83.32
2022-10-22T13:06:19.664Z,83.32
2022-10-22T13:08:58.727Z,83.32
2022-10-22T13:11:39.764Z,80.95
2022-10-22T13:14:26.170Z,81.13
2022-10-22T13:17:16.795Z,81.15
2022-10-22T13:20:02.038Z,81.36
2022-10-22T13:22:40.146Z,80.08
2022-10-22T13:25:22.222Z,79.80
2022-10-22T13:27:56.400Z,79.29
2022-10-22T13:30:29.372Z,79.52
2022-10-22T13:32:59.121Z,79.27
2022-10-22T13:35:29.201Z,79.22
2022-10-22T13:37:55.789Z,77.91
2022-10-22T13:40:22.318Z,79.13
2022-10-22T13:42:48.835Z,78.38
2022-10-22T13:45:15.713Z,79.09
2022-10-22T13:47:44.700Z,78.48
2022-10-22T13:50:14.681Z,78.59
2022-10-22T13:52:45.588Z,78.85
2022-10-22T13:55:30.049Z,78.35
2022-10-22T13:58:06.252Z,78.32
2022-10-22T14:00:32.940Z,77.86
2022-10-22T14:03:00.096Z,77.92
2022-10-22T14:05:26.591Z,77.22
2022-10-22T14:07:53.375Z,76.06
2022-10-22T14:10:24.527Z,75.98
2022-10-22T14:12:53.714Z,74.32
2022-10-22T14:15:27.640Z,74.27
2022-10-22T14:17:57.359Z,73.86
2022-10-22T14:20:26.725Z,73.80
2022-10-22T14:22:53.806Z,74.78
2022-10-22T14:25:23.256Z,74.27
2022-10-22T14:27:50.281Z,74.08
2022-10-22T14:30:19.463Z,75.16
2022-10-22T14:32:46.280Z,74.73
2022-10-22T14:35:16.170Z,74.70
2022-10-22T14:37:42.872Z,73.83
2022-10-22T14:40:13.171Z,73.03
2022-10-22T14:42:42.958Z,73.40
2022-10-22T14:45:21.171Z,73.04
2022-10-22T14:47:48.995Z,73.21
2022-10-22T14:50:15.708Z,73.29
2022-10-22T14:52:45.376Z,72.36
2022-10-22T14:55:13.634Z,72.80
2022-10-22T14:57:41.378Z,73.37
2022-10-22T15:00:12.265Z,73.05
2022-10-22T15:02:38.925Z,72.54
2022-10-22T15:05:06.189Z,72.34
2022-10-22T15:07:32.707Z,72.63
2022-10-22T15:09:59.183Z,73.12
2022-10-22T15:12:25.635Z,72.69
2022-10-22T15:14:52.096Z,73.14
2022-10-22T15:17:18.805Z,72.37
2022-10-22T15:19:45.321Z,73.28
2022-10-22T15:22:13.342Z,72.84
2022-10-22T15:24:40.732Z,73.32
2022-10-22T15:27:07.996Z,72.06
2022-10-22T15:29:34.520Z,73.63
2022-10-22T15:32:00.977Z,73.77
2022-10-22T15:34:32.859Z,73.02
2022-10-22T15:37:01.653Z,73.33
2022-10-22T15:39:28.598Z,73.70
2022-10-22T15:41:55.723Z,73.60
2022-10-22T15:44:24.633Z,73.89
2022-10-22T15:46:52.333Z,74.65
2022-10-22T15:49:19.045Z,75.80
2022-10-22T15:51:45.534Z,75.38
2022-10-22T15:54:17.663Z,76.87
2022-10-22T15:56:45.005Z,77.69
2022-10-22T15:59:13.379Z,76.42
2022-10-22T16:01:40.739Z,77.43
2022-10-22T16:04:07.510Z,78.08
2022-10-22T16:06:40.056Z,79.17
2022-10-22T16:09:13.605Z,79.33
2022-10-22T16:11:41.003Z,79.53
2022-10-22T16:14:09.097Z,80.25
2022-10-22T16:16:36.982Z,79.93
2022-10-22T16:19:03.522Z,80.27
2022-10-22T16:21:30.114Z,80.36
2022-10-22T16:23:56.653Z,80.37
2022-10-22T16:26:23.097Z,80.60
2022-10-22T16:28:49.599Z,80.22
2022-10-22T16:31:18.011Z,81.08
2022-10-22T16:33:47.771Z,80.66
2022-10-22T16:36:19.416Z,81.14
2022-10-22T16:38:46.607Z,81.11
2022-10-22T16:41:21.415Z,81.49
2022-10-22T16:43:49.628Z,81.26
2022-10-22T16:46:18.187Z,81.67
2022-10-22T16:48:48.787Z,81.93
2022-10-22T16:51:17.285Z,81.85
2022-10-22T16:53:44.126Z,81.74
2022-10-22T16:56:12.330Z,82.02
2022-10-22T16:58:39.441Z,82.13
2022-10-22T17:01:10.377Z,82.54
2022-10-22T17:03:37.561Z,82.47
2022-10-22T17:06:05.168Z,82.46
2022-10-22T17:08:34.537Z,82.59
2022-10-22T17:11:19.104Z,82.68
2022-10-22T17:13:53.220Z,83.19
2022-10-22T17:16:23.314Z,83.07
2022-10-22T17:18:49.855Z,83.09
2022-10-22T17:21:17.230Z,83.28
2022-10-22T17:23:43.850Z,83.28
2022-10-22T17:26:19.486Z,83.39
2022-10-22T17:28:46.416Z,83.14
2022-10-22T17:31:21.913Z,83.76
2022-10-22T17:33:49.968Z,83.38
2022-10-22T17:36:18.130Z,83.38
2022-10-22T17:38:48.683Z,83.44
2022-10-22T17:41:18.321Z,83.62
2022-10-22T17:46:21.726Z,84.01
2022-10-22T17:48:56.644Z,84.08
2022-10-22T17:51:24.783Z,83.92
2022-10-22T17:53:51.555Z,83.95
2022-10-22T17:56:23.783Z,84.22
2022-10-22T17:58:50.987Z,84.07
2022-10-22T18:01:20.962Z,84.20
2022-10-22T18:03:47.813Z,84.17
2022-10-22T18:06:14.833Z,84.10
2022-10-22T18:08:41.390Z,84.21
2022-10-22T18:11:13.756Z,84.35
2022-10-22T18:13:40.309Z,83.90
2022-10-22T18:16:06.854Z,84.38
2022-10-22T18:18:34.957Z,84.54
2022-10-22T18:21:02.344Z,84.55
2022-10-22T18:23:28.836Z,84.76
2022-10-22T18:25:55.307Z,84.55
2022-10-22T18:28:21.867Z,84.55
2022-10-22T18:30:48.573Z,84.51
2022-10-22T18:33:17.662Z,85.01
2022-10-22T18:35:46.474Z,84.99
2022-10-22T18:38:12.990Z,84.75
2022-10-22T18:40:48.661Z,85.17
2022-10-22T18:43:15.965Z,84.95
2022-10-22T18:45:47.652Z,84.96
2022-10-22T18:48:15.159Z,84.87
2022-10-22T18:50:42.203Z,84.53
2022-10-22T18:53:09.464Z,84.78
2022-10-22T18:55:39.400Z,84.94
2022-10-22T18:58:06.087Z,84.76
2022-10-22T19:00:34.967Z,85.55
2022-10-22T19:03:03.095Z,85.01
2022-10-22T19:05:29.640Z,85.01
2022-10-22T19:07:56.115Z,85.04
2022-10-22T19:10:22.575Z,85.49
2022-10-22T19:12:49.046Z,85.32
2022-10-22T19:15:16.055Z,85.54
2022-10-22T19:17:42.778Z,85.38
2022-10-22T19:20:09.928Z,85.35
2022-10-22T19:22:36.387Z,85.55
2022-10-22T19:25:03.631Z,85.50
2022-10-22T19:27:31.591Z,85.79
2022-10-22T19:29:58.051Z,85.61
2022-10-22T19:32:27.453Z,85.80
2022-10-22T19:34:56.796Z,85.90
2022-10-22T19:37:23.243Z,85.87
2022-10-22T19:39:50.033Z,86.03
2022-10-22T19:42:16.567Z,85.93
2022-10-22T19:44:43.060Z,86.26
2022-10-22T19:47:09.664Z,86.16
2022-10-22T19:49:36.149Z,86.18
2022-10-22T19:52:02.687Z,86.22
2022-10-22T19:54:29.432Z,86.26
2022-10-22T19:56:55.925Z,86.11
2022-10-22T19:59:26.206Z,86.51
2022-10-22T20:01:55.113Z,86.84
2022-10-22T20:04:25.024Z,86.97
2022-10-22T20:06:51.991Z,87.08
2022-10-22T20:09:18.508Z,87.13
2022-10-22T20:11:45.391Z,87.08
2022-10-22T20:14:12.909Z,87.08
2022-10-22T20:16:39.384Z,86.59
2022-10-22T20:19:07.754Z,87.34
2022-10-22T20:21:34.808Z,87.11
2022-10-22T20:24:01.287Z,87.20
2022-10-22T20:26:28.541Z,86.99
2022-10-22T20:28:55.885Z,87.37
2022-10-22T20:31:24.947Z,87.39
2022-10-22T20:33:51.483Z,87.39
2022-10-22T20:36:20.568Z,87.65
2022-10-22T20:38:48.165Z,87.54
2022-10-22T20:41:22.819Z,88.16
2022-10-22T20:43:51.046Z,88.11
2022-10-22T20:46:23.139Z,88.09
2022-10-22T20:48:52.492Z,88.06
2022-10-22T20:51:18.955Z,88.09
2022-10-22T20:53:45.460Z,88.13
2022-10-22T20:56:12.867Z,88.07
2022-10-22T20:58:39.808Z,88.39
2022-10-22T21:01:10.600Z,88.31
2022-10-22T21:03:37.729Z,88.42
2022-10-22T21:06:05.518Z,88.65
2022-10-22T21:08:32.652Z,88.63
2022-10-22T21:10:59.170Z,88.51
2022-10-22T21:13:25.614Z,88.91
2022-10-22T21:15:52.094Z,88.80
2022-10-22T21:18:18.539Z,88.78
2022-10-22T21:20:45.001Z,88.89
2022-10-22T21:23:11.472Z,89.07
2022-10-22T21:25:40.833Z,89.16
2022-10-22T21:28:09.784Z,89.02
2022-10-22T21:30:36.376Z,89.31
2022-10-22T21:33:02.855Z,89.18
2022-10-22T21:35:29.417Z,89.22
2022-10-22T21:37:55.863Z,89.00
2022-10-22T21:40:22.366Z,89.30
2022-10-22T21:42:49.831Z,89.71
2022-10-22T21:45:19.904Z,89.32
2022-10-22T21:47:47.940Z,89.80
2022-10-22T21:50:14.404Z,89.55
2022-10-22T21:52:40.960Z,89.88
2022-10-22T21:55:07.760Z,89.95
2022-10-22T21:57:34.263Z,89.70
2022-10-22T22:00:00.712Z,89.85
2022-10-22T22:02:28.561Z,89.89
2022-10-22T22:04:55.031Z,89.74
2022-10-22T22:07:22.113Z,89.97
2022-10-22T22:09:51.777Z,90.18
2022-10-22T22:12:18.913Z,90.04
2022-10-22T22:14:45.362Z,90.06
2022-10-22T22:17:11.972Z,90.34
2022-10-22T22:19:38.942Z,90.95
2022-10-22T22:22:05.505Z,90.89
2022-10-22T22:24:31.959Z,90.81
2022-10-22T22:26:58.474Z,90.79
2022-10-22T22:29:24.954Z,90.72
2022-10-22T22:31:51.493Z,90.60
2022-10-22T22:34:17.988Z,90.78
2022-10-22T22:36:46.861Z,91.44
2022-10-22T22:39:18.771Z,91.35
2022-10-22T22:41:45.642Z,90.89
2022-10-22T22:44:12.531Z,90.84
2022-10-22T22:46:39.832Z,90.99
2022-10-22T22:49:06.725Z,91.19
2022-10-22T22:51:33.629Z,91.35
2022-10-22T22:54:00.836Z,91.62
2022-10-22T22:56:32.468Z,91.78
2022-10-22T22:58:59.005Z,91.15
2022-10-22T23:01:37.162Z,91.32
2022-10-22T23:04:12.183Z,91.31
2022-10-22T23:06:39.829Z,91.55
2022-10-22T23:09:08.803Z,91.58
2022-10-22T23:11:35.929Z,91.48
2022-10-22T23:14:04.798Z,91.23
2022-10-22T23:16:33.739Z,91.58
2022-10-22T23:19:00.916Z,91.40
2022-10-22T23:21:33.375Z,91.52
2022-10-22T23:24:02.910Z,91.46
2022-10-22T23:26:33.025Z,91.24
2022-10-22T23:29:01.528Z,91.42
2022-10-22T23:31:27.987Z,91.38
2022-10-22T23:33:54.496Z,91.56
2022-10-22T23:36:21.006Z,91.13
2022-10-22T23:38:47.636Z,91.00
2022-10-22T23:41:14.090Z,91.12
2022-10-22T23:43:40.544Z,91.47
2022-10-22T23:46:09.512Z,91.63
2022-10-22T23:48:37.099Z,91.65
2022-10-22T23:51:05.981Z,91.95
2022-10-22T23:53:32.465Z,92.23
2022-10-22T23:56:04.118Z,91.80
2022-10-22T23:58:30.641Z,92.63
